Time;durP1;ratioP1;P1;durP2;ratioP2;P2;SDS_P1;SDS_P2;PMS_P1;PMS_P2;Temp;Humidity;BMP_temperature;BMP_pressure;BME280_temperature;BME280_humidity;BME280_pressure;Samples;Min_cycle;Max_cycle;Signal;HPM_P1;HPM_P2
2022/02/26 00:00:20;;;;;;;11.30;7.93;;;;;;;;;;5022224;28;20706;-62
2022/02/26 00:02:45;;;;;;;12.20;8.00;;;;;;;;;;5023326;28;20029;-62
2022/02/26 00:05:10;;;;;;;12.47;7.90;;;;;;;;;;5021946;28;20026;-60
2022/02/26 00:07:36;;;;;;;11.63;8.40;;;;;;;;;;5022129;28;20299;-62
2022/02/26 00:10:01;;;;;;;10.45;7.47;;;;;;;;;;5022554;28;20865;-61
2022/02/26 00:12:26;;;;;;;11.57;8.00;;;;;;;;;;5011151;28;20026;-61
2022/02/26 00:14:51;;;;;;;11.43;7.95;;;;;;;;;;5016901;28;20548;-62
2022/02/26 00:17:16;;;;;;;11.63;8.17;;;;;;;;;;5021955;28;20185;-61
2022/02/26 00:19:42;;;;;;;10.70;7.83;;;;;;;;;;5037467;28;20845;-62
2022/02/26 00:22:07;;;;;;;12.40;8.07;;;;;;;;;;5022264;28;20109;-61
2022/02/26 00:24:32;;;;;;;12.03;7.90;;;;;;;;;;5022163;28;20100;-61
2022/02/26 00:26:57;;;;;;;13.45;8.77;;;;;;;;;;5021989;28;20133;-61
2022/02/26 00:29:23;;;;;;;12.80;8.40;;;;;;;;;;5004303;28;20038;-61
2022/02/26 00:31:48;;;;;;;13.50;8.27;;;;;;;;;;5016334;28;20334;-61
2022/02/26 00:34:13;;;;;;;12.10;7.93;;;;;;;;;;5011649;28;20326;-61
2022/02/26 00:36:38;;;;;;;13.25;8.60;;;;;;;;;;5008810;28;20036;-61
2022/02/26 00:39:04;;;;;;;12.07;8.30;;;;;;;;;;5021988;28;20075;-61
2022/02/26 00:41:29;;;;;;;12.10;8.35;;;;;;;;;;5021288;28;20333;-61
2022/02/26 00:43:54;;;;;;;13.60;8.50;;;;;;;;;;5022334;28;20032;-61
2022/02/26 00:46:19;;;;;;;12.67;8.13;;;;;;;;;;5020389;28;20030;-61
2022/02/26 00:51:28;;;;;;;12.73;8.40;;;;;;;;;;5021779;28;20040;-60
2022/02/26 00:53:53;;;;;;;11.90;8.40;;;;;;;;;;5020293;28;20152;-60
2022/02/26 00:56:19;;;;;;;13.63;8.20;;;;;;;;;;5021218;28;20103;-62
2022/02/26 00:58:44;;;;;;;11.63;8.10;;;;;;;;;;5008739;28;20280;-61
2022/02/26 01:01:09;;;;;;;11.40;7.67;;;;;;;;;;5017833;28;20272;-61
2022/02/26 01:03:34;;;;;;;12.93;8.20;;;;;;;;;;5021304;28;20300;-61
2022/02/26 01:06:00;;;;;;;13.27;8.73;;;;;;;;;;5021472;28;20636;-60
2022/02/26 01:08:25;;;;;;;14.27;8.87;;;;;;;;;;5031076;28;20303;-61
2022/02/26 01:10:50;;;;;;;13.37;8.40;;;;;;;;;;5040810;28;20331;-61
2022/02/26 01:13:15;;;;;;;13.37;8.60;;;;;;;;;;5041185;28;20036;-61
2022/02/26 01:15:40;;;;;;;13.67;8.77;;;;;;;;;;5040945;28;20348;-61
2022/02/26 01:18:06;;;;;;;12.00;8.07;;;;;;;;;;5024414;28;20026;-61
2022/02/26 01:20:31;;;;;;;14.05;8.48;;;;;;;;;;5012833;28;20029;-60
2022/02/26 01:22:56;;;;;;;13.50;8.82;;;;;;;;;;5019405;28;20519;-61
2022/02/26 01:25:21;;;;;;;12.73;8.23;;;;;;;;;;5020722;28;20053;-61
2022/02/26 01:27:47;;;;;;;14.50;9.03;;;;;;;;;;5020540;28;20487;-59
2022/02/26 01:30:12;;;;;;;14.03;8.77;;;;;;;;;;5020625;28;20053;-61
2022/02/26 01:32:40;;;;;;;12.55;8.38;;;;;;;;;;5031706;28;20317;-61
2022/02/26 01:35:05;;;;;;;13.60;8.50;;;;;;;;;;5041025;28;20893;-61
2022/02/26 01:37:31;;;;;;;13.77;8.75;;;;;;;;;;5034405;28;20366;-62
2022/02/26 01:39:56;;;;;;;12.57;7.93;;;;;;;;;;5007997;28;20380;-62
2022/02/26 01:42:21;;;;;;;14.40;8.97;;;;;;;;;;5020098;28;20271;-62
2022/02/26 01:44:51;;;;;;;14.07;9.05;;;;;;;;;;5020530;28;20274;-62
2022/02/26 01:47:16;;;;;;;14.60;9.40;;;;;;;;;;5020460;28;20076;-62
2022/02/26 01:49:41;;;;;;;13.50;9.07;;;;;;;;;;5020713;28;20611;-61
2022/02/26 01:52:07;;;;;;;12.65;8.23;;;;;;;;;;5019421;28;20559;-62
2022/02/26 01:54:32;;;;;;;13.00;8.50;;;;;;;;;;5020560;28;20083;-61
2022/02/26 01:56:57;;;;;;;13.40;8.77;;;;;;;;;;5036133;28;20416;-60
2022/02/26 01:59:22;;;;;;;12.87;8.63;;;;;;;;;;5019338;28;20283;-60
2022/02/26 02:01:48;;;;;;;13.57;9.20;;;;;;;;;;5019816;28;20271;-60
2022/02/26 02:04:14;;;;;;;13.63;8.67;;;;;;;;;;5021071;28;20288;-62
2022/02/26 02:06:39;;;;;;;13.00;8.93;;;;;;;;;;5020759;28;20442;-62
2022/02/26 02:09:05;;;;;;;15.00;9.15;;;;;;;;;;5018928;28;20101;-59
2022/02/26 02:11:31;;;;;;;13.30;8.77;;;;;;;;;;5019778;28;20036;-61
2022/02/26 02:13:56;;;;;;;13.85;9.18;;;;;;;;;;5020415;28;20108;-62
2022/02/26 02:16:21;;;;;;;13.30;8.90;;;;;;;;;;5020003;28;20039;-61
2022/02/26 02:18:46;;;;;;;13.77;9.57;;;;;;;;;;5007149;28;20675;-61
2022/02/26 02:21:12;;;;;;;13.25;9.35;;;;;;;;;;5008341;28;20080;-61
2022/02/26 02:23:37;;;;;;;16.05;9.15;;;;;;;;;;5012222;28;20048;-60
2022/02/26 02:26:02;;;;;;;14.03;8.80;;;;;;;;;;5020281;28;20017;-58
2022/02/26 02:28:28;;;;;;;13.63;8.82;;;;;;;;;;5035233;28;20353;-59
2022/02/26 02:30:53;;;;;;;12.32;9.15;;;;;;;;;;5020001;28;20451;-59
2022/02/26 02:33:19;;;;;;;11.60;8.20;;;;;;;;;;5020041;28;20026;-60
2022/02/26 02:35:44;;;;;;;13.77;9.13;;;;;;;;;;5020228;28;20836;-60
2022/02/26 02:38:12;;;;;;;13.60;8.93;;;;;;;;;;5020058;28;20416;-59
2022/02/26 02:40:38;;;;;;;13.32;9.02;;;;;;;;;;5020331;28;20272;-59
2022/02/26 02:43:05;;;;;;;13.77;9.02;;;;;;;;;;5003155;28;20030;-60
2022/02/26 02:45:30;;;;;;;12.90;9.07;;;;;;;;;;5018453;28;20495;-58
2022/02/26 02:47:55;;;;;;;13.65;8.85;;;;;;;;;;5020349;28;20372;-61
2022/02/26 02:50:20;;;;;;;14.27;8.97;;;;;;;;;;5035482;28;20484;-58
2022/02/26 02:52:46;;;;;;;12.02;8.73;;;;;;;;;;5020009;28;20725;-61
2022/02/26 02:55:12;;;;;;;14.25;9.45;;;;;;;;;;5019998;28;20484;-58
2022/02/26 02:57:37;;;;;;;13.32;8.60;;;;;;;;;;5019662;28;20493;-59
2022/02/26 03:00:04;;;;;;;13.70;8.82;;;;;;;;;;5019765;28;20017;-60
2022/02/26 03:02:30;;;;;;;12.77;9.25;;;;;;;;;;5009199;28;20022;-64
2022/02/26 03:04:55;;;;;;;13.27;9.20;;;;;;;;;;5015122;28;20424;-60
2022/02/26 03:07:20;;;;;;;11.93;8.50;;;;;;;;;;5034826;28;20405;-61
2022/02/26 03:09:45;;;;;;;13.83;9.00;;;;;;;;;;5020122;28;20594;-61
2022/02/26 03:12:10;;;;;;;13.63;8.80;;;;;;;;;;5020006;28;20476;-62
2022/02/26 03:14:36;;;;;;;11.97;8.07;;;;;;;;;;5019681;28;20654;-60
2022/02/26 03:17:01;;;;;;;13.48;8.70;;;;;;;;;;5019485;28;20412;-61
2022/02/26 03:19:27;;;;;;;13.65;8.38;;;;;;;;;;5019396;28;20500;-59
2022/02/26 03:21:52;;;;;;;12.40;8.95;;;;;;;;;;5014522;28;20416;-61
2022/02/26 03:24:17;;;;;;;14.80;9.07;;;;;;;;;;5008942;28;20247;-61
2022/02/26 03:26:42;;;;;;;13.07;8.87;;;;;;;;;;5019433;28;20667;-58
2022/02/26 03:29:09;;;;;;;13.00;8.73;;;;;;;;;;5019326;28;20330;-59
2022/02/26 03:31:34;;;;;;;13.30;8.75;;;;;;;;;;5035669;28;20256;-61
2022/02/26 03:33:59;;;;;;;13.90;9.32;;;;;;;;;;5023605;28;20065;-61
2022/02/26 03:36:27;;;;;;;15.07;9.55;;;;;;;;;;5023483;28;20024;-60
2022/02/26 03:38:52;;;;;;;12.88;8.90;;;;;;;;;;5023213;28;20029;-59
2022/02/26 03:41:18;;;;;;;11.63;8.43;;;;;;;;;;5022106;28;20103;-60
2022/02/26 03:43:43;;;;;;;13.63;9.10;;;;;;;;;;5007348;28;20729;-61
2022/02/26 03:46:08;;;;;;;13.47;9.23;;;;;;;;;;5022629;28;20689;-61
2022/02/26 03:48:33;;;;;;;12.40;9.20;;;;;;;;;;5023155;28;20776;-62
2022/02/26 03:51:04;;;;;;;13.60;9.03;;;;;;;;;;5023260;28;20852;-61
2022/02/26 03:53:29;;;;;;;14.57;9.60;;;;;;;;;;5023288;28;20260;-60
2022/02/26 03:55:55;;;;;;;13.10;9.15;;;;;;;;;;5043115;28;20039;-61
2022/02/26 03:58:20;;;;;;;12.67;8.73;;;;;;;;;;5042670;28;20021;-60
2022/02/26 04:00:45;;;;;;;12.47;8.23;;;;;;;;;;5029810;28;20793;-61
2022/02/26 04:03:10;;;;;;;13.32;8.73;;;;;;;;;;5006737;28;20413;-61
2022/02/26 04:05:35;;;;;;;12.37;8.90;;;;;;;;;;5021992;28;20087;-61
2022/02/26 04:08:01;;;;;;;13.27;8.83;;;;;;;;;;5012726;28;20353;-61
2022/02/26 04:10:26;;;;;;;11.57;8.20;;;;;;;;;;5022926;28;20025;-60
2022/02/26 04:12:51;;;;;;;14.05;8.80;;;;;;;;;;5022401;28;20272;-61
2022/02/26 04:15:16;;;;;;;12.73;8.33;;;;;;;;;;5021934;28;20160;-61
2022/02/26 04:17:42;;;;;;;13.33;8.63;;;;;;;;;;5022803;28;20105;-61
2022/02/26 04:20:09;;;;;;;12.00;8.05;;;;;;;;;;5022555;28;20268;-61
2022/02/26 04:22:34;;;;;;;10.95;7.95;;;;;;;;;;5033432;28;20686;-61
2022/02/26 04:24:59;;;;;;;13.23;8.80;;;;;;;;;;5042328;28;20069;-61
2022/02/26 04:27:24;;;;;;;13.60;8.70;;;;;;;;;;5038868;28;20068;-61
2022/02/26 04:29:50;;;;;;;12.67;8.57;;;;;;;;;;5006036;28;20061;-61
2022/02/26 04:32:15;;;;;;;14.13;8.93;;;;;;;;;;5022366;28;20057;-61
2022/02/26 04:34:40;;;;;;;12.07;7.77;;;;;;;;;;5022314;28;20283;-61
2022/02/26 04:37:05;;;;;;;12.53;8.60;;;;;;;;;;5022253;28;20825;-61
2022/02/26 04:39:31;;;;;;;12.35;8.88;;;;;;;;;;5021990;28;20272;-61
2022/02/26 04:41:56;;;;;;;12.20;8.10;;;;;;;;;;5021850;28;20061;-61
2022/02/26 04:44:21;;;;;;;13.93;8.43;;;;;;;;;;5021536;28;20678;-61
2022/02/26 04:46:46;;;;;;;12.17;8.37;;;;;;;;;;5021491;28;20311;-60
2022/02/26 04:49:12;;;;;;;12.47;8.13;;;;;;;;;;5005449;28;20306;-61
2022/02/26 04:51:37;;;;;;;11.75;7.97;;;;;;;;;;5021527;28;20330;-60
2022/02/26 04:54:02;;;;;;;13.15;8.45;;;;;;;;;;5021892;28;20028;-61
2022/02/26 04:56:27;;;;;;;12.00;8.10;;;;;;;;;;5021318;28;20463;-61
2022/02/26 04:58:53;;;;;;;11.77;7.97;;;;;;;;;;5021311;28;20389;-61
2022/02/26 05:01:18;;;;;;;11.53;8.23;;;;;;;;;;5021304;28;20037;-61
2022/02/26 05:03:43;;;;;;;11.10;7.40;;;;;;;;;;5011788;28;20034;-61
2022/02/26 05:06:09;;;;;;;12.30;7.90;;;;;;;;;;5019182;28;20036;-60
2022/02/26 05:08:34;;;;;;;10.75;7.10;;;;;;;;;;5003253;28;20034;-63
2022/02/26 05:10:59;;;;;;;12.23;7.73;;;;;;;;;;5016262;28;20503;-63
2022/02/26 05:13:25;;;;;;;11.00;7.27;;;;;;;;;;5010196;28;20524;-62
2022/02/26 05:15:50;;;;;;;10.65;7.45;;;;;;;;;;5018708;28;21243;-59
2022/02/26 05:18:15;;;;;;;12.13;7.32;;;;;;;;;;5016625;28;20033;-59
2022/02/26 05:20:41;;;;;;;11.23;7.30;;;;;;;;;;5020881;28;20096;-64
2022/02/26 05:23:06;;;;;;;12.30;7.47;;;;;;;;;;5009376;28;20311;-62
2022/02/26 05:25:31;;;;;;;10.70;7.63;;;;;;;;;;5002841;28;20261;-62
2022/02/26 05:27:56;;;;;;;10.43;7.53;;;;;;;;;;5002295;28;21148;-64
2022/02/26 05:30:22;;;;;;;10.53;7.47;;;;;;;;;;5002774;28;20554;-60
2022/02/26 05:32:47;;;;;;;10.33;7.10;;;;;;;;;;5002619;28;20481;-62
2022/02/26 05:35:12;;;;;;;11.47;7.90;;;;;;;;;;5002560;28;20496;-64
2022/02/26 05:37:38;;;;;;;9.95;7.05;;;;;;;;;;5000953;28;20263;-61
2022/02/26 05:40:03;;;;;;;9.57;6.97;;;;;;;;;;5000342;28;20494;-58
2022/02/26 05:42:29;;;;;;;10.52;6.75;;;;;;;;;;4999820;28;20473;-59
2022/02/26 05:44:54;;;;;;;9.50;7.13;;;;;;;;;;5000625;28;20022;-60
2022/02/26 05:47:19;;;;;;;9.40;7.20;;;;;;;;;;5017176;28;20029;-59
2022/02/26 05:49:44;;;;;;;10.57;7.93;;;;;;;;;;5020586;28;21106;-58
2022/02/26 05:52:09;;;;;;;10.53;7.67;;;;;;;;;;5014644;28;20281;-60
2022/02/26 05:54:38;;;;;;;10.03;6.87;;;;;;;;;;5000545;28;20075;-60
2022/02/26 05:57:03;;;;;;;9.90;6.75;;;;;;;;;;5003510;28;20663;-60
2022/02/26 05:59:28;;;;;;;10.30;6.63;;;;;;;;;;5008393;28;20025;-62
2022/02/26 06:01:54;;;;;;;10.23;6.80;;;;;;;;;;5020078;28;20828;-59
2022/02/26 06:04:19;;;;;;;8.90;6.70;;;;;;;;;;5020518;28;20786;-61
2022/02/26 06:06:44;;;;;;;9.90;6.68;;;;;;;;;;5035573;28;20722;-59
2022/02/26 06:09:09;;;;;;;9.05;6.88;;;;;;;;;;5019144;28;20076;-61
2022/02/26 06:11:35;;;;;;;10.37;6.57;;;;;;;;;;5016327;28;20029;-59
2022/02/26 06:14:00;;;;;;;9.97;7.00;;;;;;;;;;5018476;28;20298;-60
2022/02/26 06:16:25;;;;;;;9.43;6.45;;;;;;;;;;5019540;28;20132;-61
2022/02/26 06:18:50;;;;;;;9.27;6.57;;;;;;;;;;5020214;28;20021;-61
2022/02/26 06:21:16;;;;;;;10.00;6.63;;;;;;;;;;5020293;28;20382;-61
2022/02/26 06:23:41;;;;;;;9.48;6.55;;;;;;;;;;5020021;28;20105;-60
2022/02/26 06:26:06;;;;;;;8.83;6.73;;;;;;;;;;5019161;28;20981;-60
2022/02/26 06:28:31;;;;;;;8.50;6.27;;;;;;;;;;5019491;28;20140;-60
2022/02/26 06:30:57;;;;;;;9.20;6.85;;;;;;;;;;5020322;28;20295;-61
2022/02/26 06:33:22;;;;;;;8.80;6.40;;;;;;;;;;5019345;28;20040;-61
2022/02/26 06:35:47;;;;;;;8.73;6.53;;;;;;;;;;5004668;28;20350;-57
2022/02/26 06:38:12;;;;;;;11.97;6.73;;;;;;;;;;5023770;28;20017;-59
2022/02/26 06:40:38;;;;;;;14.43;6.70;;;;;;;;;;5032973;28;20041;-58
2022/02/26 06:43:03;;;;;;;9.65;6.32;;;;;;;;;;5016379;28;20029;-61
2022/02/26 06:45:28;;;;;;;9.63;6.47;;;;;;;;;;5018859;28;20056;-59
2022/02/26 06:47:53;;;;;;;8.53;6.17;;;;;;;;;;5019871;28;20292;-59
2022/02/26 06:50:19;;;;;;;8.40;5.97;;;;;;;;;;5019160;28;20120;-60
2022/02/26 06:52:44;;;;;;;9.87;6.40;;;;;;;;;;5016842;28;20136;-60
2022/02/26 06:55:09;;;;;;;8.10;6.10;;;;;;;;;;5017785;28;20133;-60
2022/02/26 06:57:34;;;;;;;8.70;5.97;;;;;;;;;;5033181;28;20264;-60
2022/02/26 06:59:59;;;;;;;8.83;6.43;;;;;;;;;;5019369;28;20759;-59
2022/02/26 07:02:25;;;;;;;8.97;5.80;;;;;;;;;;5016726;28;20036;-60
2022/02/26 07:04:50;;;;;;;8.63;6.00;;;;;;;;;;5013778;28;20810;-58
2022/02/26 07:07:16;;;;;;;10.87;6.43;;;;;;;;;;5017890;28;20375;-58
2022/02/26 07:09:42;;;;;;;11.32;6.30;;;;;;;;;;5023443;28;20036;-61
2022/02/26 07:12:07;;;;;;;9.55;5.57;;;;;;;;;;5023339;28;20025;-60
2022/02/26 07:14:32;;;;;;;8.48;5.90;;;;;;;;;;5012875;28;20144;-61
2022/02/26 07:16:58;;;;;;;7.17;5.53;;;;;;;;;;5016565;28;20021;-61
2022/02/26 07:19:23;;;;;;;8.50;5.93;;;;;;;;;;5022435;28;20279;-62
2022/02/26 07:21:48;;;;;;;7.10;5.37;;;;;;;;;;5038762;28;20271;-63
2022/02/26 07:24:14;;;;;;;7.60;5.80;;;;;;;;;;5022151;28;20928;-62
2022/02/26 07:26:39;;;;;;;9.50;5.95;;;;;;;;;;5022092;28;20531;-62
2022/02/26 07:29:05;;;;;;;9.00;5.40;;;;;;;;;;5022280;28;20037;-61
2022/02/26 07:31:30;;;;;;;8.27;6.03;;;;;;;;;;5022074;28;20279;-64
2022/02/26 07:33:56;;;;;;;8.18;5.57;;;;;;;;;;5021619;28;20025;-61
2022/02/26 07:36:21;;;;;;;8.50;5.45;;;;;;;;;;5022379;28;20021;-63
2022/02/26 07:38:46;;;;;;;9.10;5.43;;;;;;;;;;5017349;28;20484;-59
2022/02/26 07:41:12;;;;;;;7.73;5.77;;;;;;;;;;5020564;28;20492;-63
2022/02/26 07:43:37;;;;;;;8.67;5.17;;;;;;;;;;5022863;28;20041;-63
2022/02/26 07:46:02;;;;;;;8.52;5.30;;;;;;;;;;5023115;28;20271;-62
2022/02/26 07:48:28;;;;;;;8.65;5.47;;;;;;;;;;5023873;28;20033;-60
2022/02/26 07:50:53;;;;;;;7.63;5.47;;;;;;;;;;5023546;28;20053;-62
2022/02/26 07:53:18;;;;;;;7.97;5.17;;;;;;;;;;5023065;28;20101;-62
2022/02/26 07:55:43;;;;;;;7.13;4.93;;;;;;;;;;5035542;28;20100;-62
2022/02/26 07:58:09;;;;;;;6.87;5.13;;;;;;;;;;5041754;28;20106;-60
2022/02/26 08:00:34;;;;;;;8.50;5.47;;;;;;;;;;5011044;28;20057;-60
2022/02/26 08:03:00;;;;;;;8.10;5.13;;;;;;;;;;5004709;28;20030;-61
2022/02/26 08:05:26;;;;;;;7.72;5.43;;;;;;;;;;5019704;28;20028;-60
2022/02/26 08:07:51;;;;;;;7.68;5.65;;;;;;;;;;5022009;28;20045;-61
2022/02/26 08:10:17;;;;;;;7.97;5.78;;;;;;;;;;5022757;28;20025;-61
2022/02/26 08:12:43;;;;;;;7.47;5.25;;;;;;;;;;5022569;28;20166;-62
2022/02/26 08:15:08;;;;;;;8.02;5.20;;;;;;;;;;5018112;28;20068;-60
2022/02/26 08:17:33;;;;;;;7.63;5.45;;;;;;;;;;5021968;28;20029;-60
2022/02/26 08:19:59;;;;;;;7.77;5.00;;;;;;;;;;5017234;28;20037;-60
2022/02/26 08:22:24;;;;;;;8.80;5.53;;;;;;;;;;5011576;28;20018;-62
2022/02/26 08:24:49;;;;;;;7.93;5.40;;;;;;;;;;5033813;28;20040;-62
2022/02/26 08:27:14;;;;;;;8.30;5.27;;;;;;;;;;5039710;28;20282;-61
2022/02/26 08:29:40;;;;;;;6.80;4.75;;;;;;;;;;5022201;28;20045;-62
2022/02/26 08:32:05;;;;;;;9.63;5.05;;;;;;;;;;5021422;28;20734;-61
2022/02/26 08:34:30;;;;;;;7.25;4.85;;;;;;;;;;5020151;28;20022;-59
2022/02/26 08:36:56;;;;;;;8.80;5.60;;;;;;;;;;5022308;28;20071;-61
2022/02/26 08:39:22;;;;;;;7.30;4.90;;;;;;;;;;5021585;28;20690;-61
2022/02/26 08:41:47;;;;;;;8.10;4.75;;;;;;;;;;5005660;28;20017;-61
2022/02/26 08:44:13;;;;;;;7.20;5.10;;;;;;;;;;5037216;28;20544;-61
2022/02/26 08:46:38;;;;;;;7.70;5.10;;;;;;;;;;5021369;28;20291;-61
2022/02/26 08:49:03;;;;;;;8.17;5.13;;;;;;;;;;5021630;28;20295;-60
2022/02/26 08:51:28;;;;;;;7.83;4.80;;;;;;;;;;5021331;28;20036;-61
2022/02/26 08:53:54;;;;;;;6.90;5.03;;;;;;;;;;5021872;28;20272;-62
2022/02/26 08:56:21;;;;;;;6.45;4.70;;;;;;;;;;5021985;28;20849;-60
2022/02/26 08:58:47;;;;;;;7.93;5.00;;;;;;;;;;5021478;28;20107;-61
2022/02/26 09:01:12;;;;;;;6.65;4.93;;;;;;;;;;5021623;28;20026;-61
2022/02/26 09:03:37;;;;;;;7.43;5.00;;;;;;;;;;5022033;28;20661;-60
2022/02/26 09:06:03;;;;;;;7.43;4.97;;;;;;;;;;5036761;28;20635;-59
2022/02/26 09:08:28;;;;;;;7.47;4.80;;;;;;;;;;5020907;28;20865;-61
2022/02/26 09:10:53;;;;;;;7.77;4.73;;;;;;;;;;5021495;28;20113;-60
2022/02/26 09:13:18;;;;;;;6.67;5.27;;;;;;;;;;5020880;28;20896;-60
2022/02/26 09:15:43;;;;;;;6.38;4.93;;;;;;;;;;5020695;28;20302;-61
2022/02/26 09:18:09;;;;;;;6.35;4.85;;;;;;;;;;5020954;28;20124;-59
2022/02/26 09:20:34;;;;;;;6.80;4.43;;;;;;;;;;5020892;28;20047;-61
2022/02/26 09:22:59;;;;;;;7.80;5.13;;;;;;;;;;5018482;28;20209;-59
2022/02/26 09:25:24;;;;;;;6.68;4.90;;;;;;;;;;5007483;28;20219;-58
2022/02/26 09:27:50;;;;;;;6.72;4.38;;;;;;;;;;5020910;28;20874;-61
2022/02/26 09:30:15;;;;;;;5.90;4.53;;;;;;;;;;5020003;28;20132;-60
2022/02/26 09:32:40;;;;;;;6.45;4.57;;;;;;;;;;5021243;28;20264;-60
2022/02/26 09:35:06;;;;;;;6.27;4.97;;;;;;;;;;5021166;28;20038;-59
2022/02/26 09:37:31;;;;;;;6.63;4.60;;;;;;;;;;5021118;28;20268;-61
2022/02/26 09:39:59;;;;;;;7.53;5.07;;;;;;;;;;5021068;28;20033;-60
2022/02/26 09:42:27;;;;;;;5.70;4.50;;;;;;;;;;5020575;28;20655;-61
2022/02/26 09:44:53;;;;;;;6.35;4.95;;;;;;;;;;5023687;28;20108;-60
2022/02/26 09:47:18;;;;;;;7.15;4.82;;;;;;;;;;5017361;28;20462;-60
2022/02/26 09:49:43;;;;;;;5.93;4.68;;;;;;;;;;5020388;28;20033;-60
2022/02/26 09:52:09;;;;;;;7.33;5.03;;;;;;;;;;5019330;28;20021;-59
2022/02/26 09:54:34;;;;;;;7.22;4.82;;;;;;;;;;5020757;28;20029;-62
2022/02/26 09:56:59;;;;;;;7.80;5.03;;;;;;;;;;5020541;28;20061;-62
2022/02/26 09:59:25;;;;;;;6.90;4.90;;;;;;;;;;5020402;28;20029;-61
2022/02/26 10:01:57;;;;;;;6.40;4.47;;;;;;;;;;5020270;28;20056;-61
2022/02/26 10:04:23;;;;;;;5.97;4.47;;;;;;;;;;5012593;28;20033;-61
2022/02/26 10:06:48;;;;;;;7.68;4.65;;;;;;;;;;5012128;28;20455;-62
2022/02/26 10:09:14;;;;;;;7.93;5.23;;;;;;;;;;5020546;28;20041;-59
2022/02/26 10:11:40;;;;;;;6.75;4.30;;;;;;;;;;5020174;28;20267;-62
2022/02/26 10:14:05;;;;;;;5.57;4.55;;;;;;;;;;5021113;28;20025;-61
2022/02/26 10:16:49;;;;;;;6.65;4.65;;;;;;;;;;5020737;28;20025;-62
2022/02/26 10:19:20;;;;;;;6.63;4.50;;;;;;;;;;5020642;28;20049;-61
2022/02/26 10:21:45;;;;;;;6.30;4.18;;;;;;;;;;5020013;28;20016;-61
2022/02/26 10:24:14;;;;;;;6.27;4.33;;;;;;;;;;5013932;28;20034;-60
2022/02/26 10:26:39;;;;;;;6.10;4.45;;;;;;;;;;5009558;28;20276;-61
2022/02/26 10:29:08;;;;;;;6.65;4.30;;;;;;;;;;5019918;28;20451;-62
2022/02/26 10:31:43;;;;;;;7.43;4.82;;;;;;;;;;5035236;28;20052;-62
2022/02/26 10:34:29;;;;;;;5.63;4.47;;;;;;;;;;5020074;28;20018;-61
2022/02/26 10:37:07;;;;;;;5.75;4.10;;;;;;;;;;5023170;28;20120;-61
2022/02/26 10:39:35;;;;;;;6.78;4.50;;;;;;;;;;5035440;28;20412;-61
2022/02/26 10:42:00;;;;;;;6.28;4.60;;;;;;;;;;5023894;28;20010;-61
2022/02/26 10:44:26;;;;;;;6.85;4.93;;;;;;;;;;5015789;28;20052;-62
2022/02/26 10:46:51;;;;;;;6.43;4.70;;;;;;;;;;5016154;28;20049;-62
2022/02/26 10:49:16;;;;;;;6.30;4.40;;;;;;;;;;5024257;28;20567;-62
2022/02/26 10:51:42;;;;;;;7.05;4.70;;;;;;;;;;5024059;28;20291;-61
2022/02/26 10:54:17;;;;;;;5.78;4.35;;;;;;;;;;5023998;28;20017;-61
2022/02/26 10:56:44;;;;;;;6.60;4.40;;;;;;;;;;5023540;28;20044;-61
2022/02/26 10:59:10;;;;;;;7.20;4.18;;;;;;;;;;5024170;28;20017;-62
2022/02/26 11:01:35;;;;;;;6.15;4.80;;;;;;;;;;5021727;28;20053;-62
2022/02/26 11:04:04;;;;;;;7.22;4.97;;;;;;;;;;5034208;28;20607;-61
2022/02/26 11:06:29;;;;;;;7.57;4.90;;;;;;;;;;5012651;28;20045;-62
2022/02/26 11:08:55;;;;;;;6.45;4.55;;;;;;;;;;5033398;28;20034;-62
2022/02/26 11:11:20;;;;;;;7.10;4.43;;;;;;;;;;5012258;28;20022;-61
2022/02/26 11:13:45;;;;;;;5.88;4.18;;;;;;;;;;5021169;28;20025;-61
2022/02/26 11:16:11;;;;;;;6.55;4.57;;;;;;;;;;5021499;28;20021;-61
2022/02/26 11:18:37;;;;;;;6.45;4.38;;;;;;;;;;5039139;28;20060;-61
2022/02/26 11:21:02;;;;;;;5.60;3.97;;;;;;;;;;5023418;28;20056;-62
2022/02/26 11:23:27;;;;;;;6.53;4.80;;;;;;;;;;5055090;28;20060;-61
2022/02/26 11:25:53;;;;;;;6.43;4.60;;;;;;;;;;5038579;28;20105;-59
2022/02/26 11:28:18;;;;;;;6.20;4.20;;;;;;;;;;5023192;28;20124;-58
2022/02/26 11:30:50;;;;;;;6.17;4.47;;;;;;;;;;5027152;28;20485;-61
2022/02/26 11:33:15;;;;;;;6.43;4.40;;;;;;;;;;5034110;28;20017;-62
2022/02/26 11:35:49;;;;;;;5.43;4.10;;;;;;;;;;5038617;28;20104;-59
2022/02/26 11:38:16;;;;;;;6.78;4.32;;;;;;;;;;5022972;28;20109;-61
2022/02/26 11:40:42;;;;;;;6.40;4.57;;;;;;;;;;5023088;28;20071;-60
2022/02/26 11:43:07;;;;;;;6.13;4.47;;;;;;;;;;5023089;28;20868;-60
2022/02/26 11:45:33;;;;;;;6.38;4.78;;;;;;;;;;5022625;28;20458;-60
2022/02/26 11:48:01;;;;;;;6.10;4.38;;;;;;;;;;5023153;28;20112;-62
2022/02/26 11:50:33;;;;;;;6.65;4.10;;;;;;;;;;5023006;28;20029;-61
2022/02/26 11:52:59;;;;;;;5.80;3.90;;;;;;;;;;5004095;28;20434;-59
2022/02/26 11:55:25;;;;;;;6.68;4.15;;;;;;;;;;5022845;28;20024;-62
2022/02/26 11:57:50;;;;;;;5.73;4.07;;;;;;;;;;5022587;28;20048;-62
2022/02/26 12:00:16;;;;;;;6.28;4.30;;;;;;;;;;5022620;28;20029;-61
2022/02/26 12:02:41;;;;;;;6.10;4.20;;;;;;;;;;5022486;28;20033;-62
2022/02/26 12:05:09;;;;;;;5.95;4.45;;;;;;;;;;5022812;28;20055;-63
2022/02/26 12:07:37;;;;;;;6.30;4.25;;;;;;;;;;5020870;28;20545;-62
2022/02/26 12:10:06;;;;;;;6.05;4.00;;;;;;;;;;5017423;28;20088;-60
2022/02/26 12:12:33;;;;;;;5.57;4.07;;;;;;;;;;5011682;28;20025;-59
2022/02/26 12:14:58;;;;;;;6.13;4.05;;;;;;;;;;5022235;28;20113;-61
2022/02/26 12:17:24;;;;;;;6.03;3.93;;;;;;;;;;5037963;28;20117;-61
2022/02/26 12:19:51;;;;;;;5.47;4.17;;;;;;;;;;5022485;28;20268;-60
2022/02/26 12:22:17;;;;;;;6.25;4.28;;;;;;;;;;5022486;28;20029;-59
2022/02/26 12:24:49;;;;;;;4.83;3.60;;;;;;;;;;5022007;28;20554;-60
2022/02/26 12:27:14;;;;;;;6.45;4.07;;;;;;;;;;5022537;28;20033;-60
2022/02/26 12:29:40;;;;;;;5.70;4.00;;;;;;;;;;5019933;28;20045;-61
2022/02/26 12:32:05;;;;;;;6.57;4.38;;;;;;;;;;5007655;28;20268;-61
2022/02/26 12:34:31;;;;;;;6.13;4.47;;;;;;;;;;5022205;28;20021;-59
2022/02/26 12:37:05;;;;;;;6.55;3.90;;;;;;;;;;5022294;28;20033;-62
2022/02/26 12:39:30;;;;;;;5.97;4.03;;;;;;;;;;5021675;28;20029;-62
2022/02/26 12:41:56;;;;;;;6.18;4.00;;;;;;;;;;5053783;28;20024;-62
2022/02/26 12:44:22;;;;;;;5.80;4.18;;;;;;;;;;5021717;28;20056;-60
2022/02/26 12:46:47;;;;;;;5.20;3.78;;;;;;;;;;5021633;28;20048;-61
2022/02/26 12:49:12;;;;;;;6.30;4.00;;;;;;;;;;5022421;28;20479;-60
2022/02/26 12:51:39;;;;;;;5.77;3.53;;;;;;;;;;5020784;28;20276;-61
2022/02/26 12:54:04;;;;;;;5.82;4.10;;;;;;;;;;5018942;28;20453;-64
2022/02/26 12:56:32;;;;;;;5.97;4.30;;;;;;;;;;5010603;28;20026;-62
2022/02/26 12:59:17;;;;;;;5.82;4.38;;;;;;;;;;5014367;28;20044;-59
2022/02/26 13:01:43;;;;;;;5.65;3.80;;;;;;;;;;5021630;28;20040;-60
2022/02/26 13:04:18;;;;;;;5.35;4.00;;;;;;;;;;5021637;28;20021;-60
2022/02/26 13:06:49;;;;;;;5.90;4.07;;;;;;;;;;5036303;28;20052;-62
2022/02/26 13:09:15;;;;;;;5.25;3.95;;;;;;;;;;5021413;28;20068;-59
2022/02/26 13:11:44;;;;;;;5.27;4.10;;;;;;;;;;5021464;28;20025;-61
2022/02/26 13:14:09;;;;;;;6.07;3.97;;;;;;;;;;5029208;28;20052;-61
2022/02/26 13:16:34;;;;;;;5.47;4.07;;;;;;;;;;5025905;28;20084;-61
2022/02/26 13:19:00;;;;;;;5.70;4.22;;;;;;;;;;5014856;28;20295;-61
2022/02/26 13:21:33;;;;;;;5.07;3.87;;;;;;;;;;5021864;28;20481;-62
2022/02/26 13:23:58;;;;;;;5.35;3.72;;;;;;;;;;5005876;28;20374;-62
2022/02/26 13:26:27;;;;;;;4.90;3.70;;;;;;;;;;5021262;28;20091;-61
2022/02/26 13:28:55;;;;;;;5.63;3.67;;;;;;;;;;5036180;28;20492;-63
2022/02/26 13:31:21;;;;;;;6.75;3.88;;;;;;;;;;5020980;28;20028;-63
2022/02/26 13:33:46;;;;;;;4.60;3.75;;;;;;;;;;5054926;28;20021;-61
2022/02/26 13:36:12;;;;;;;5.37;3.57;;;;;;;;;;5028851;28;20539;-62
2022/02/26 13:38:37;;;;;;;4.30;3.50;;;;;;;;;;5025994;28;20025;-60
2022/02/26 13:41:09;;;;;;;5.97;3.80;;;;;;;;;;5036551;28;20058;-59
2022/02/26 13:43:34;;;;;;;4.95;3.58;;;;;;;;;;5021323;28;20260;-62
2022/02/26 13:45:59;;;;;;;5.50;3.70;;;;;;;;;;5021582;28;20013;-62
2022/02/26 13:48:25;;;;;;;5.30;3.97;;;;;;;;;;5021981;28;20039;-61
2022/02/26 13:50:50;;;;;;;4.57;3.45;;;;;;;;;;5021736;28;20108;-63
2022/02/26 13:53:17;;;;;;;5.00;3.33;;;;;;;;;;5022313;28;20726;-61
2022/02/26 13:55:48;;;;;;;4.97;3.42;;;;;;;;;;5037061;28;20057;-64
2022/02/26 13:58:21;;;;;;;5.55;3.88;;;;;;;;;;5023362;28;20021;-59
2022/02/26 14:00:47;;;;;;;4.72;3.50;;;;;;;;;;5020629;28;20044;-59
2022/02/26 14:03:12;;;;;;;4.68;3.72;;;;;;;;;;5020789;28;20021;-62
2022/02/26 14:05:38;;;;;;;5.67;4.13;;;;;;;;;;5020136;28;20130;-61
2022/02/26 14:08:03;;;;;;;5.82;3.70;;;;;;;;;;5020516;28;20323;-61
2022/02/26 14:10:29;;;;;;;5.82;3.47;;;;;;;;;;5044656;28;20039;-60
2022/02/26 14:12:55;;;;;;;5.57;3.80;;;;;;;;;;5028990;28;20521;-59
2022/02/26 14:15:21;;;;;;;4.97;3.35;;;;;;;;;;5018313;28;20069;-63
2022/02/26 14:17:56;;;;;;;5.05;3.67;;;;;;;;;;5017689;28;20029;-62
2022/02/26 14:20:39;;;;;;;5.28;3.47;;;;;;;;;;5020149;28;20026;-62
2022/02/26 14:23:05;;;;;;;5.28;3.35;;;;;;;;;;5017807;28;20025;-63
2022/02/26 14:25:33;;;;;;;5.43;3.28;;;;;;;;;;5019107;28;20520;-62
2022/02/26 14:27:59;;;;;;;5.00;3.90;;;;;;;;;;5016957;28;20017;-63
2022/02/26 14:30:24;;;;;;;5.90;3.63;;;;;;;;;;5019296;28;20041;-59
2022/02/26 14:32:50;;;;;;;4.70;3.23;;;;;;;;;;5019825;28;20022;-59